Hearst, Canada
Current Conditions -  °F | °C
As of 7:27 AM on Monday 20 Oct 2014 (Local Time) from CYYU Reporting Station
Drizzle Drizzle  
Wind Chill: 29°   Ceiling: 1700
Heat Index: 34°   Visibility: 8mi
Dew Point: 32°   Wind: 6mph
Humidity: 93%   Direction: 110°ESE
Pressure: 29.8"   Gusts: NA
Location:  49.69°N, 83.66°W
Report Text: CYYU 201127Z 11005KT 8SM -DZ OVC017 01/00 A2980 RMK SC8 SLP101
Loading
Personal Weather Stations






























Interactive Weather Map
Tropical Storm Tracking
New forecast layout! Learn more

10-Day Weather Forecast

Advertisements
Track Severe Weather on mobile